NCAR-RAP Real-Time Weather Data

Output produced by METARs form (10 April 2020  04:40 UTC)
found at http://weather.rap.ucar.edu/surface/
 
KFNT 100430Z 30014KT 10SM FEW016 BKN034 OVC046 02/M02 A2968 RMK AO2 T00221022